sensor_id;sensor_type;location;lat;lon;timestamp;pressure;altitude;pressure_sealevel;temperature;humidity
4767;BME280;2397;53.576;9.746;2023-04-07T00:01:53;101712.09;;;7.78;45.24
4767;BME280;2397;53.576;9.746;2023-04-07T00:04:19;101714.88;;;7.77;45.72
4767;BME280;2397;53.576;9.746;2023-04-07T00:06:46;101711.88;;;7.81;45.75
4767;BME280;2397;53.576;9.746;2023-04-07T00:09:12;101714.22;;;7.73;45.59
4767;BME280;2397;53.576;9.746;2023-04-07T00:11:39;101713.25;;;7.74;45.79
4767;BME280;2397;53.576;9.746;2023-04-07T00:14:06;101715.41;;;7.69;45.96
4767;BME280;2397;53.576;9.746;2023-04-07T00:16:32;101720.25;;;7.63;46.09
4767;BME280;2397;53.576;9.746;2023-04-07T00:18:59;101704.59;;;7.61;46.26
4767;BME280;2397;53.576;9.746;2023-04-07T00:21:26;101710.06;;;7.58;46.19
4767;BME280;2397;53.576;9.746;2023-04-07T00:23:52;101710.16;;;7.57;46.05
4767;BME280;2397;53.576;9.746;2023-04-07T00:26:19;101706.69;;;7.56;46.21
4767;BME280;2397;53.576;9.746;2023-04-07T00:28:46;101704.06;;;7.56;46.39
4767;BME280;2397;53.576;9.746;2023-04-07T00:31:13;101706.47;;;7.59;46.32
4767;BME280;2397;53.576;9.746;2023-04-07T00:33:39;101701.88;;;7.50;47.17
4767;BME280;2397;53.576;9.746;2023-04-07T00:36:06;101710.50;;;7.40;46.95
4767;BME280;2397;53.576;9.746;2023-04-07T00:38:33;101702.75;;;7.38;46.60
4767;BME280;2397;53.576;9.746;2023-04-07T00:40:59;101702.44;;;7.30;47.34
4767;BME280;2397;53.576;9.746;2023-04-07T00:43:26;101702.13;;;7.35;46.89
4767;BME280;2397;53.576;9.746;2023-04-07T00:45:53;101704.34;;;7.28;47.40
4767;BME280;2397;53.576;9.746;2023-04-07T00:48:20;101712.81;;;7.32;47.66
4767;BME280;2397;53.576;9.746;2023-04-07T00:50:47;101706.97;;;7.28;47.95
4767;BME280;2397;53.576;9.746;2023-04-07T00:53:14;101704.94;;;7.19;47.72
4767;BME280;2397;53.576;9.746;2023-04-07T00:55:40;101702.13;;;7.22;47.58
4767;BME280;2397;53.576;9.746;2023-04-07T00:58:07;101705.59;;;7.23;47.30
4767;BME280;2397;53.576;9.746;2023-04-07T01:00:38;101704.84;;;7.21;47.91
4767;BME280;2397;53.576;9.746;2023-04-07T01:07:26;101705.72;;;7.08;48.34
4767;BME280;2397;53.576;9.746;2023-04-07T01:10:05;101707.72;;;7.05;47.71
4767;BME280;2397;53.576;9.746;2023-04-07T01:13:21;101703.06;;;7.08;47.65
4767;BME280;2397;53.576;9.746;2023-04-07T01:15:51;101703.63;;;7.01;47.93
4767;BME280;2397;53.576;9.746;2023-04-07T01:18:31;101708.88;;;7.01;48.66
4767;BME280;2397;53.576;9.746;2023-04-07T01:21:04;101707.16;;;7.00;48.05
4767;BME280;2397;53.576;9.746;2023-04-07T01:26:30;101696.47;;;6.90;47.93
4767;BME280;2397;53.576;9.746;2023-04-07T01:29:31;101702.97;;;6.97;47.65
4767;BME280;2397;53.576;9.746;2023-04-07T01:32:01;101701.59;;;6.92;48.24
4767;BME280;2397;53.576;9.746;2023-04-07T01:34:30;101704.03;;;6.95;47.81
4767;BME280;2397;53.576;9.746;2023-04-07T01:36:58;101701.00;;;6.88;48.87
4767;BME280;2397;53.576;9.746;2023-04-07T01:39:26;101700.13;;;6.88;48.73
4767;BME280;2397;53.576;9.746;2023-04-07T01:41:54;101702.97;;;6.85;48.35
4767;BME280;2397;53.576;9.746;2023-04-07T01:44:23;101708.09;;;6.74;48.34
4767;BME280;2397;53.576;9.746;2023-04-07T01:46:52;101713.63;;;6.69;49.64
4767;BME280;2397;53.576;9.746;2023-04-07T01:49:19;101716.38;;;6.55;49.57
4767;BME280;2397;53.576;9.746;2023-04-07T01:51:48;101709.03;;;6.60;49.63
4767;BME280;2397;53.576;9.746;2023-04-07T01:54:16;101711.75;;;6.59;49.38
4767;BME280;2397;53.576;9.746;2023-04-07T01:56:44;101708.81;;;6.63;49.04
4767;BME280;2397;53.576;9.746;2023-04-07T01:59:11;101726.00;;;6.55;49.68
4767;BME280;2397;53.576;9.746;2023-04-07T02:01:38;101726.09;;;6.53;50.19
4767;BME280;2397;53.576;9.746;2023-04-07T02:04:09;101728.81;;;6.52;50.13
4767;BME280;2397;53.576;9.746;2023-04-07T02:06:46;101719.69;;;6.45;50.64
4767;BME280;2397;53.576;9.746;2023-04-07T02:09:18;101723.34;;;6.42;49.93
4767;BME280;2397;53.576;9.746;2023-04-07T02:11:47;101728.34;;;6.33;50.81
4767;BME280;2397;53.576;9.746;2023-04-07T02:14:15;101727.03;;;6.40;50.54
4767;BME280;2397;53.576;9.746;2023-04-07T02:16:58;101724.06;;;6.32;50.49
4767;BME280;2397;53.576;9.746;2023-04-07T02:19:27;101728.47;;;6.31;50.52
4767;BME280;2397;53.576;9.746;2023-04-07T02:21:55;101720.69;;;6.30;50.64
4767;BME280;2397;53.576;9.746;2023-04-07T02:24:23;101721.94;;;6.24;51.04
4767;BME280;2397;53.576;9.746;2023-04-07T02:26:49;101719.09;;;6.27;50.97
4767;BME280;2397;53.576;9.746;2023-04-07T02:29:16;101723.41;;;6.28;50.70
4767;BME280;2397;53.576;9.746;2023-04-07T02:31:43;101720.59;;;6.31;50.48
4767;BME280;2397;53.576;9.746;2023-04-07T02:34:09;101729.16;;;6.21;50.45
4767;BME280;2397;53.576;9.746;2023-04-07T02:36:37;101733.97;;;6.14;50.38
4767;BME280;2397;53.576;9.746;2023-04-07T02:39:05;101735.94;;;6.11;50.64
4767;BME280;2397;53.576;9.746;2023-04-07T02:41:31;101739.16;;;6.02;51.61
4767;BME280;2397;53.576;9.746;2023-04-07T02:43:58;101744.41;;;5.88;51.79
4767;BME280;2397;53.576;9.746;2023-04-07T02:46:25;101742.44;;;5.91;51.82
4767;BME280;2397;53.576;9.746;2023-04-07T02:48:51;101746.09;;;5.89;51.58
4767;BME280;2397;53.576;9.746;2023-04-07T02:51:17;101747.97;;;5.87;51.59
4767;BME280;2397;53.576;9.746;2023-04-07T02:53:44;101746.50;;;5.83;51.33
4767;BME280;2397;53.576;9.746;2023-04-07T02:56:11;101752.66;;;5.82;51.38
4767;BME280;2397;53.576;9.746;2023-04-07T02:58:37;101746.50;;;5.83;52.10
4767;BME280;2397;53.576;9.746;2023-04-07T03:01:04;101752.28;;;5.88;51.94
4767;BME280;2397;53.576;9.746;2023-04-07T03:03:32;101756.75;;;5.86;51.37
4767;BME280;2397;53.576;9.746;2023-04-07T03:06:08;101751.75;;;5.83;51.37
4767;BME280;2397;53.576;9.746;2023-04-07T03:08:41;101753.75;;;5.78;51.32
4767;BME280;2397;53.576;9.746;2023-04-07T03:11:07;101752.16;;;5.75;51.54
4767;BME280;2397;53.576;9.746;2023-04-07T03:13:34;101761.69;;;5.76;51.23
4767;BME280;2397;53.576;9.746;2023-04-07T03:16:02;101754.88;;;5.74;51.94
4767;BME280;2397;53.576;9.746;2023-04-07T03:18:34;101761.25;;;5.70;52.07
4767;BME280;2397;53.576;9.746;2023-04-07T03:21:01;101755.56;;;5.63;51.41
4767;BME280;2397;53.576;9.746;2023-04-07T03:23:27;101758.28;;;5.62;51.46
4767;BME280;2397;53.576;9.746;2023-04-07T03:25:56;101756.78;;;5.58;51.43
4767;BME280;2397;53.576;9.746;2023-04-07T03:28:27;101761.06;;;5.59;51.90
4767;BME280;2397;53.576;9.746;2023-04-07T03:30:54;101758.28;;;5.48;51.68
4767;BME280;2397;53.576;9.746;2023-04-07T03:33:21;101753.97;;;5.47;51.83
4767;BME280;2397;53.576;9.746;2023-04-07T03:35:47;101760.13;;;5.46;51.69
4767;BME280;2397;53.576;9.746;2023-04-07T03:38:14;101757.50;;;5.46;51.86
4767;BME280;2397;53.576;9.746;2023-04-07T03:40:41;101756.59;;;5.47;51.81
4767;BME280;2397;53.576;9.746;2023-04-07T03:43:07;101753.78;;;5.50;51.29
4767;BME280;2397;53.576;9.746;2023-04-07T03:45:38;101758.63;;;5.56;51.36
4767;BME280;2397;53.576;9.746;2023-04-07T03:48:06;101757.41;;;5.61;51.02
4767;BME280;2397;53.576;9.746;2023-04-07T03:50:45;101753.03;;;5.48;51.52
4767;BME280;2397;53.576;9.746;2023-04-07T03:53:15;101763.13;;;5.54;51.61
4767;BME280;2397;53.576;9.746;2023-04-07T03:55:43;101765.94;;;5.51;50.32
4767;BME280;2397;53.576;9.746;2023-04-07T03:58:18;101761.25;;;5.56;50.58
4767;BME280;2397;53.576;9.746;2023-04-07T04:00:47;101774.34;;;5.56;50.82
4767;BME280;2397;53.576;9.746;2023-04-07T04:03:14;101776.41;;;5.51;51.71
4767;BME280;2397;53.576;9.746;2023-04-07T04:05:51;101767.97;;;5.46;51.08
4767;BME280;2397;53.576;9.746;2023-04-07T04:08:25;101784.44;;;5.48;51.30
4767;BME280;2397;53.576;9.746;2023-04-07T04:10:52;101775.75;;;5.47;51.23
4767;BME280;2397;53.576;9.746;2023-04-07T04:13:18;101786.88;;;5.51;51.61
4767;BME280;2397;53.576;9.746;2023-04-07T04:15:45;101784.81;;;5.42;50.77
4767;BME280;2397;53.576;9.746;2023-04-07T04:18:14;101790.44;;;5.36;51.27
4767;BME280;2397;53.576;9.746;2023-04-07T04:20:41;101791.91;;;5.26;51.70
4767;BME280;2397;53.576;9.746;2023-04-07T04:23:08;101793.03;;;5.22;51.62
4767;BME280;2397;53.576;9.746;2023-04-07T04:25:35;101788.19;;;5.30;51.49
4767;BME280;2397;53.576;9.746;2023-04-07T04:28:06;101792.25;;;5.20;52.45
4767;BME280;2397;53.576;9.746;2023-04-07T04:30:34;101798.09;;;5.25;52.10
4767;BME280;2397;53.576;9.746;2023-04-07T04:33:02;101794.97;;;5.18;51.84
4767;BME280;2397;53.576;9.746;2023-04-07T04:35:40;101791.16;;;5.10;51.66
4767;BME280;2397;53.576;9.746;2023-04-07T04:38:10;101806.75;;;5.11;51.73
4767;BME280;2397;53.576;9.746;2023-04-07T04:40:41;101800.75;;;5.09;51.96
4767;BME280;2397;53.576;9.746;2023-04-07T04:43:08;101813.75;;;5.11;52.37
4767;BME280;2397;53.576;9.746;2023-04-07T04:45:36;101807.69;;;5.10;52.02
4767;BME280;2397;53.576;9.746;2023-04-07T04:48:04;101817.69;;;5.18;51.35
4767;BME280;2397;53.576;9.746;2023-04-07T04:50:31;101814.69;;;5.10;51.94
4767;BME280;2397;53.576;9.746;2023-04-07T04:52:59;101822.16;;;5.02;52.69
4767;BME280;2397;53.576;9.746;2023-04-07T04:55:26;101835.81;;;5.07;52.72
4767;BME280;2397;53.576;9.746;2023-04-07T04:57:53;101828.13;;;5.04;53.01
4767;BME280;2397;53.576;9.746;2023-04-07T05:00:29;101838.59;;;5.04;52.83
4767;BME280;2397;53.576;9.746;2023-04-07T05:03:00;101830.91;;;5.01;52.55
4767;BME280;2397;53.576;9.746;2023-04-07T05:05:32;101822.91;;;5.04;52.78
4767;BME280;2397;53.576;9.746;2023-04-07T05:07:59;101832.25;;;5.08;51.73
4767;BME280;2397;53.576;9.746;2023-04-07T05:10:32;101830.41;;;5.10;52.26
4767;BME280;2397;53.576;9.746;2023-04-07T05:12:58;101826.53;;;5.01;52.33
4767;BME280;2397;53.576;9.746;2023-04-07T05:15:25;101839.28;;;5.07;52.88
4767;BME280;2397;53.576;9.746;2023-04-07T05:17:52;101838.63;;;5.18;52.22
4767;BME280;2397;53.576;9.746;2023-04-07T05:20:23;101850.56;;;5.08;52.36
4767;BME280;2397;53.576;9.746;2023-04-07T05:22:50;101847.69;;;5.12;52.66
4767;BME280;2397;53.576;9.746;2023-04-07T05:25:20;101849.75;;;5.07;52.67
4767;BME280;2397;53.576;9.746;2023-04-07T05:27:50;101859.75;;;5.15;52.20
4767;BME280;2397;53.576;9.746;2023-04-07T05:30:17;101857.03;;;5.16;52.45
4767;BME280;2397;53.576;9.746;2023-04-07T05:32:43;101854.78;;;5.10;52.36
4767;BME280;2397;53.576;9.746;2023-04-07T05:35:21;101864.25;;;5.13;53.09
4767;BME280;2397;53.576;9.746;2023-04-07T05:37:52;101864.41;;;5.10;53.33
4767;BME280;2397;53.576;9.746;2023-04-07T05:40:19;101869.28;;;5.16;52.58
4767;BME280;2397;53.576;9.746;2023-04-07T05:42:46;101869.09;;;5.19;51.98
4767;BME280;2397;53.576;9.746;2023-04-07T05:45:13;101869.78;;;5.22;52.50
4767;BME280;2397;53.576;9.746;2023-04-07T05:47:44;101875.53;;;5.13;52.70
4767;BME280;2397;53.576;9.746;2023-04-07T05:50:13;101871.16;;;5.14;52.91
4767;BME280;2397;53.576;9.746;2023-04-07T05:52:42;101872.47;;;5.21;52.31
4767;BME280;2397;53.576;9.746;2023-04-07T05:55:18;101874.41;;;5.17;52.77
4767;BME280;2397;53.576;9.746;2023-04-07T05:57:46;101885.28;;;5.25;51.87
4767;BME280;2397;53.576;9.746;2023-04-07T06:00:14;101886.69;;;5.31;51.65
4767;BME280;2397;53.576;9.746;2023-04-07T06:02:43;101890.16;;;5.31;52.28
4767;BME280;2397;53.576;9.746;2023-04-07T06:05:15;101890.47;;;5.41;51.60
4767;BME280;2397;53.576;9.746;2023-04-07T06:07:43;101892.91;;;5.44;51.30
4767;BME280;2397;53.576;9.746;2023-04-07T06:10:10;101889.19;;;5.48;52.00
4767;BME280;2397;53.576;9.746;2023-04-07T06:12:36;101885.81;;;5.60;51.46
4767;BME280;2397;53.576;9.746;2023-04-07T06:15:03;101901.19;;;5.66;51.02
4767;BME280;2397;53.576;9.746;2023-04-07T06:17:29;101894.47;;;5.76;50.82
4767;BME280;2397;53.576;9.746;2023-04-07T06:19:56;101896.53;;;5.85;50.45
4767;BME280;2397;53.576;9.746;2023-04-07T06:22:23;101902.91;;;5.95;50.30
4767;BME280;2397;53.576;9.746;2023-04-07T06:24:49;101899.09;;;6.00;49.67
4767;BME280;2397;53.576;9.746;2023-04-07T06:27:16;101905.91;;;6.17;49.98
4767;BME280;2397;53.576;9.746;2023-04-07T06:29:46;101908.03;;;6.24;49.57
4767;BME280;2397;53.576;9.746;2023-04-07T06:32:13;101906.91;;;6.28;48.89
4767;BME280;2397;53.576;9.746;2023-04-07T06:34:39;101926.13;;;6.29;49.07
4767;BME280;2397;53.576;9.746;2023-04-07T06:37:07;101919.38;;;6.39;48.26
4767;BME280;2397;53.576;9.746;2023-04-07T06:39:34;101914.84;;;6.55;48.63
4767;BME280;2397;53.576;9.746;2023-04-07T06:42:00;101929.78;;;6.67;48.26
4767;BME280;2397;53.576;9.746;2023-04-07T06:44:27;101927.75;;;6.72;48.01
4767;BME280;2397;53.576;9.746;2023-04-07T06:46:53;101929.16;;;6.63;47.42
4767;BME280;2397;53.576;9.746;2023-04-07T06:49:20;101935.28;;;6.76;48.25
4767;BME280;2397;53.576;9.746;2023-04-07T06:51:47;101937.25;;;6.87;47.35
4767;BME280;2397;53.576;9.746;2023-04-07T06:54:13;101934.59;;;7.01;47.34
4767;BME280;2397;53.576;9.746;2023-04-07T06:56:41;101935.84;;;7.08;47.43
4767;BME280;2397;53.576;9.746;2023-04-07T06:59:08;101940.50;;;7.17;46.89
4767;BME280;2397;53.576;9.746;2023-04-07T07:01:35;101943.47;;;7.25;46.75
4767;BME280;2397;53.576;9.746;2023-04-07T07:04:03;101940.22;;;7.34;46.20
4767;BME280;2397;53.576;9.746;2023-04-07T07:06:31;101937.41;;;7.37;45.73
4767;BME280;2397;53.576;9.746;2023-04-07T07:08:58;101936.63;;;7.49;45.50
4767;BME280;2397;53.576;9.746;2023-04-07T07:11:25;101937.47;;;7.62;45.41
4767;BME280;2397;53.576;9.746;2023-04-07T07:13:52;101927.59;;;7.66;43.99
4767;BME280;2397;53.576;9.746;2023-04-07T07:16:18;101936.41;;;7.77;44.87
4767;BME280;2397;53.576;9.746;2023-04-07T07:18:45;101937.06;;;7.93;44.31
4767;BME280;2397;53.576;9.746;2023-04-07T07:21:12;101939.47;;;8.09;44.07
4767;BME280;2397;53.576;9.746;2023-04-07T07:23:38;101936.75;;;8.23;44.47
4767;BME280;2397;53.576;9.746;2023-04-07T07:26:05;101937.91;;;8.31;43.98
4767;BME280;2397;53.576;9.746;2023-04-07T07:28:31;101939.88;;;8.40;43.12
4767;BME280;2397;53.576;9.746;2023-04-07T07:30:58;101947.53;;;8.56;44.18
4767;BME280;2397;53.576;9.746;2023-04-07T07:33:25;101945.44;;;8.48;43.01
4767;BME280;2397;53.576;9.746;2023-04-07T07:35:51;101950.03;;;8.70;43.35
4767;BME280;2397;53.576;9.746;2023-04-07T07:38:18;101952.03;;;9.02;42.90
4767;BME280;2397;53.576;9.746;2023-04-07T07:40:45;101960.13;;;9.23;42.30
4767;BME280;2397;53.576;9.746;2023-04-07T07:43:12;101949.06;;;9.30;41.37
4767;BME280;2397;53.576;9.746;2023-04-07T07:45:38;101957.34;;;9.37;41.56
4767;BME280;2397;53.576;9.746;2023-04-07T07:48:05;101960.88;;;9.48;41.48
4767;BME280;2397;53.576;9.746;2023-04-07T07:50:31;101958.13;;;9.26;40.33
4767;BME280;2397;53.576;9.746;2023-04-07T07:52:58;101964.44;;;9.47;40.62
4767;BME280;2397;53.576;9.746;2023-04-07T07:55:24;101962.56;;;9.60;40.35
4767;BME280;2397;53.576;9.746;2023-04-07T07:57:51;101966.25;;;9.92;39.73
4767;BME280;2397;53.576;9.746;2023-04-07T08:00:18;101976.81;;;9.92;39.56
4767;BME280;2397;53.576;9.746;2023-04-07T08:02:44;101976.56;;;9.95;40.04
4767;BME280;2397;53.576;9.746;2023-04-07T08:05:11;101962.00;;;10.13;39.19
4767;BME280;2397;53.576;9.746;2023-04-07T08:07:38;101984.06;;;10.12;39.04
4767;BME280;2397;53.576;9.746;2023-04-07T08:10:04;101971.72;;;10.24;38.26
4767;BME280;2397;53.576;9.746;2023-04-07T08:12:31;101977.59;;;10.38;39.27
4767;BME280;2397;53.576;9.746;2023-04-07T08:14:58;101985.28;;;10.42;38.02
4767;BME280;2397;53.576;9.746;2023-04-07T08:17:24;101980.97;;;10.52;38.43
4767;BME280;2397;53.576;9.746;2023-04-07T08:19:51;101980.69;;;10.77;38.59
4767;BME280;2397;53.576;9.746;2023-04-07T08:22:17;101985.38;;;10.84;37.01
4767;BME280;2397;53.576;9.746;2023-04-07T08:24:46;101989.53;;;10.98;38.06
4767;BME280;2397;53.576;9.746;2023-04-07T08:27:12;101982.06;;;11.03;37.87
4767;BME280;2397;53.576;9.746;2023-04-07T08:29:39;101981.84;;;10.95;36.69
4767;BME280;2397;53.576;9.746;2023-04-07T08:32:05;101988.78;;;11.07;36.81
4767;BME280;2397;53.576;9.746;2023-04-07T08:34:32;101983.50;;;11.07;36.69
4767;BME280;2397;53.576;9.746;2023-04-07T08:36:58;101976.41;;;11.18;35.60
4767;BME280;2397;53.576;9.746;2023-04-07T08:39:25;101983.56;;;11.38;35.74
4767;BME280;2397;53.576;9.746;2023-04-07T08:41:52;101977.91;;;11.32;35.98
4767;BME280;2397;53.576;9.746;2023-04-07T08:44:21;101979.75;;;11.52;35.75
4767;BME280;2397;53.576;9.746;2023-04-07T08:46:49;101983.03;;;11.44;36.95
4767;BME280;2397;53.576;9.746;2023-04-07T08:49:16;101982.91;;;11.77;37.54
4767;BME280;2397;53.576;9.746;2023-04-07T08:51:45;101977.50;;;11.79;35.77
4767;BME280;2397;53.576;9.746;2023-04-07T08:54:16;101979.63;;;12.05;37.13
4767;BME280;2397;53.576;9.746;2023-04-07T08:56:47;101976.78;;;11.97;35.64
4767;BME280;2397;53.576;9.746;2023-04-07T08:59:14;101993.22;;;12.01;37.86
4767;BME280;2397;53.576;9.746;2023-04-07T09:01:44;101987.63;;;12.15;36.60
4767;BME280;2397;53.576;9.746;2023-04-07T09:04:12;101990.63;;;12.10;35.67
4767;BME280;2397;53.576;9.746;2023-04-07T09:06:39;101984.38;;;12.11;36.24
4767;BME280;2397;53.576;9.746;2023-04-07T09:09:05;101981.19;;;11.56;35.10
4767;BME280;2397;53.576;9.746;2023-04-07T09:11:37;101996.28;;;11.33;35.79
4767;BME280;2397;53.576;9.746;2023-04-07T09:14:04;101987.34;;;11.45;34.92
4767;BME280;2397;53.576;9.746;2023-04-07T09:16:31;101989.75;;;11.48;35.63
4767;BME280;2397;53.576;9.746;2023-04-07T09:18:58;101993.19;;;11.60;37.22
4767;BME280;2397;53.576;9.746;2023-04-07T09:21:24;101992.84;;;11.85;35.23
4767;BME280;2397;53.576;9.746;2023-04-07T09:23:52;101993.34;;;11.99;36.60
4767;BME280;2397;53.576;9.746;2023-04-07T09:26:25;101988.66;;;12.03;35.32
4767;BME280;2397;53.576;9.746;2023-04-07T09:28:58;101975.63;;;11.90;34.42
4767;BME280;2397;53.576;9.746;2023-04-07T09:31:48;101976.13;;;12.05;35.91
4767;BME280;2397;53.576;9.746;2023-04-07T09:36:53;101979.50;;;12.37;34.71
4767;BME280;2397;53.576;9.746;2023-04-07T09:39:20;101980.03;;;12.31;35.09
4767;BME280;2397;53.576;9.746;2023-04-07T09:41:46;101981.13;;;12.28;34.22
4767;BME280;2397;53.576;9.746;2023-04-07T09:44:13;101973.50;;;12.35;34.18
4767;BME280;2397;53.576;9.746;2023-04-07T09:46:54;101971.09;;;12.32;33.19
4767;BME280;2397;53.576;9.746;2023-04-07T09:49:22;101971.41;;;12.29;33.87
4767;BME280;2397;53.576;9.746;2023-04-07T09:54:37;101968.63;;;12.30;33.59
4767;BME280;2397;53.576;9.746;2023-04-07T09:57:05;101967.34;;;12.04;33.33
4767;BME280;2397;53.576;9.746;2023-04-07T09:59:33;101968.31;;;12.03;33.57
4767;BME280;2397;53.576;9.746;2023-04-07T10:02:00;101966.34;;;11.96;32.94
4767;BME280;2397;53.576;9.746;2023-04-07T10:04:27;101968.50;;;12.11;34.47
4767;BME280;2397;53.576;9.746;2023-04-07T10:06:56;101969.72;;;12.37;36.16
4767;BME280;2397;53.576;9.746;2023-04-07T10:09:24;101967.25;;;12.36;33.96
4767;BME280;2397;53.576;9.746;2023-04-07T10:11:52;101962.47;;;12.30;33.13
4767;BME280;2397;53.576;9.746;2023-04-07T10:14:21;101975.88;;;12.38;34.29
4767;BME280;2397;53.576;9.746;2023-04-07T10:16:48;101972.28;;;12.48;32.68
4767;BME280;2397;53.576;9.746;2023-04-07T10:19:18;101970.06;;;12.44;34.10
4767;BME280;2397;53.576;9.746;2023-04-07T10:21:46;101973.94;;;12.40;34.58
4767;BME280;2397;53.576;9.746;2023-04-07T10:24:42;101962.41;;;12.50;34.09
4767;BME280;2397;53.576;9.746;2023-04-07T10:27:18;101962.63;;;12.77;33.51
4767;BME280;2397;53.576;9.746;2023-04-07T10:29:47;101970.13;;;13.02;34.77
4767;BME280;2397;53.576;9.746;2023-04-07T10:32:15;101965.81;;;13.11;33.53
4767;BME280;2397;53.576;9.746;2023-04-07T10:37:19;101966.38;;;13.14;32.50
4767;BME280;2397;53.576;9.746;2023-04-07T10:39:48;101970.53;;;12.98;32.15
4767;BME280;2397;53.576;9.746;2023-04-07T10:42:43;101970.59;;;13.36;32.38
4767;BME280;2397;53.576;9.746;2023-04-07T10:45:10;101971.66;;;13.05;31.25
4767;BME280;2397;53.576;9.746;2023-04-07T10:50:31;101986.50;;;13.55;31.78
4767;BME280;2397;53.576;9.746;2023-04-07T10:53:08;101979.81;;;13.41;32.60
4767;BME280;2397;53.576;9.746;2023-04-07T10:55:41;101975.03;;;13.07;30.42
4767;BME280;2397;53.576;9.746;2023-04-07T11:03:27;101973.03;;;13.95;30.90
4767;BME280;2397;53.576;9.746;2023-04-07T11:06:11;101981.25;;;14.30;30.72
4767;BME280;2397;53.576;9.746;2023-04-07T11:08:39;101967.13;;;14.29;29.24
4767;BME280;2397;53.576;9.746;2023-04-07T11:11:15;101977.28;;;14.43;29.68
4767;BME280;2397;53.576;9.746;2023-04-07T11:13:45;101987.75;;;14.72;29.07
4767;BME280;2397;53.576;9.746;2023-04-07T11:16:14;101972.81;;;14.34;27.79
4767;BME280;2397;53.576;9.746;2023-04-07T11:18:42;101988.84;;;14.52;29.26
4767;BME280;2397;53.576;9.746;2023-04-07T11:21:09;101983.97;;;14.74;29.79
4767;BME280;2397;53.576;9.746;2023-04-07T11:23:41;101978.75;;;15.09;29.81
4767;BME280;2397;53.576;9.746;2023-04-07T11:26:10;101971.63;;;15.27;27.62
4767;BME280;2397;53.576;9.746;2023-04-07T11:28:49;101973.38;;;15.36;27.51
4767;BME280;2397;53.576;9.746;2023-04-07T11:31:29;101973.75;;;15.41;27.99
4767;BME280;2397;53.576;9.746;2023-04-07T11:34:00;101972.66;;;15.87;30.90
4767;BME280;2397;53.576;9.746;2023-04-07T11:36:32;101976.59;;;16.26;28.68
4767;BME280;2397;53.576;9.746;2023-04-07T11:38:59;101960.19;;;15.87;28.19
4767;BME280;2397;53.576;9.746;2023-04-07T11:41:29;101974.72;;;16.26;29.68
4767;BME280;2397;53.576;9.746;2023-04-07T11:44:08;101971.13;;;16.35;27.88
4767;BME280;2397;53.576;9.746;2023-04-07T11:46:52;101976.19;;;15.70;29.08
4767;BME280;2397;53.576;9.746;2023-04-07T11:49:20;101974.72;;;15.23;28.18
4767;BME280;2397;53.576;9.746;2023-04-07T11:51:46;101981.06;;;16.00;29.68
4767;BME280;2397;53.576;9.746;2023-04-07T11:54:13;101976.22;;;16.46;29.18
4767;BME280;2397;53.576;9.746;2023-04-07T11:56:45;101970.53;;;16.41;28.69
4767;BME280;2397;53.576;9.746;2023-04-07T11:59:22;101985.81;;;16.14;28.85
4767;BME280;2397;53.576;9.746;2023-04-07T12:01:50;101984.19;;;15.95;29.43
4767;BME280;2397;53.576;9.746;2023-04-07T12:04:19;101978.66;;;16.40;29.90
4767;BME280;2397;53.576;9.746;2023-04-07T12:06:47;101983.41;;;16.96;28.73
4767;BME280;2397;53.576;9.746;2023-04-07T12:09:27;101995.13;;;17.11;30.16
4767;BME280;2397;53.576;9.746;2023-04-07T12:11:55;101981.72;;;16.87;29.36
4767;BME280;2397;53.576;9.746;2023-04-07T12:14:23;101995.03;;;17.36;29.75
4767;BME280;2397;53.576;9.746;2023-04-07T12:16:50;101991.22;;;17.47;29.19
4767;BME280;2397;53.576;9.746;2023-04-07T12:19:18;101999.34;;;16.71;28.57
4767;BME280;2397;53.576;9.746;2023-04-07T12:21:45;101985.63;;;17.08;28.52
4767;BME280;2397;53.576;9.746;2023-04-07T12:24:11;101999.22;;;16.22;29.60
4767;BME280;2397;53.576;9.746;2023-04-07T12:26:38;101990.66;;;16.18;28.66
4767;BME280;2397;53.576;9.746;2023-04-07T12:29:05;101998.06;;;16.83;28.14
4767;BME280;2397;53.576;9.746;2023-04-07T12:31:33;101993.91;;;16.55;27.35
4767;BME280;2397;53.576;9.746;2023-04-07T12:34:00;101983.22;;;16.47;27.82
4767;BME280;2397;53.576;9.746;2023-04-07T12:36:26;101989.84;;;17.35;27.09
4767;BME280;2397;53.576;9.746;2023-04-07T12:38:53;101984.72;;;17.49;27.58
4767;BME280;2397;53.576;9.746;2023-04-07T12:41:19;101986.91;;;17.86;25.27
4767;BME280;2397;53.576;9.746;2023-04-07T12:43:46;101987.88;;;17.93;26.59
4767;BME280;2397;53.576;9.746;2023-04-07T12:46:13;101988.88;;;18.16;26.00
4767;BME280;2397;53.576;9.746;2023-04-07T12:48:40;101988.72;;;18.01;25.29
4767;BME280;2397;53.576;9.746;2023-04-07T12:51:06;101990.22;;;18.04;25.87
4767;BME280;2397;53.576;9.746;2023-04-07T12:53:33;101987.88;;;17.93;25.63
4767;BME280;2397;53.576;9.746;2023-04-07T12:55:59;101989.00;;;17.34;24.93
4767;BME280;2397;53.576;9.746;2023-04-07T12:58:26;101991.38;;;18.01;25.20
4767;BME280;2397;53.576;9.746;2023-04-07T13:00:53;101984.22;;;17.46;24.90
4767;BME280;2397;53.576;9.746;2023-04-07T13:03:19;101994.56;;;18.05;25.40
4767;BME280;2397;53.576;9.746;2023-04-07T13:05:46;101984.19;;;18.10;24.18
4767;BME280;2397;53.576;9.746;2023-04-07T13:08:13;101980.50;;;18.27;23.58
4767;BME280;2397;53.576;9.746;2023-04-07T13:10:40;101989.06;;;18.69;24.41
4767;BME280;2397;53.576;9.746;2023-04-07T13:13:06;101984.44;;;18.55;24.35
4767;BME280;2397;53.576;9.746;2023-04-07T13:15:33;101981.84;;;18.23;23.44
4767;BME280;2397;53.576;9.746;2023-04-07T13:17:59;101990.72;;;18.70;25.51
4767;BME280;2397;53.576;9.746;2023-04-07T13:20:26;101988.78;;;18.64;25.19
4767;BME280;2397;53.576;9.746;2023-04-07T13:22:53;101987.28;;;18.92;26.35
4767;BME280;2397;53.576;9.746;2023-04-07T13:25:33;101987.66;;;18.89;25.69
4767;BME280;2397;53.576;9.746;2023-04-07T13:28:00;101984.50;;;18.15;28.27
4767;BME280;2397;53.576;9.746;2023-04-07T13:30:26;101990.47;;;18.57;29.80
4767;BME280;2397;53.576;9.746;2023-04-07T13:32:55;101997.53;;;18.34;29.63
4767;BME280;2397;53.576;9.746;2023-04-07T13:35:22;101984.69;;;18.76;28.42
4767;BME280;2397;53.576;9.746;2023-04-07T13:37:49;101980.28;;;18.91;29.18
4767;BME280;2397;53.576;9.746;2023-04-07T13:40:15;101992.88;;;18.20;29.25
4767;BME280;2397;53.576;9.746;2023-04-07T13:42:42;101977.56;;;17.58;28.37
4767;BME280;2397;53.576;9.746;2023-04-07T13:45:08;101992.91;;;17.96;29.44
4767;BME280;2397;53.576;9.746;2023-04-07T13:47:35;101989.84;;;18.15;29.01
4767;BME280;2397;53.576;9.746;2023-04-07T13:50:02;101996.25;;;17.66;30.93